sensor_id;sensor_type;location;lat;lon;timestamp;P1;durP1;ratioP1;P2;durP2;ratioP2
65469;SDS011;52067;50.710;14.492;2024-03-25T00:01:02;6.40;;;3.47;;
65469;SDS011;52067;50.710;14.492;2024-03-25T00:03:29;6.65;;;3.00;;
65469;SDS011;52067;50.710;14.492;2024-03-25T00:05:54;4.80;;;3.00;;
65469;SDS011;52067;50.710;14.492;2024-03-25T00:08:19;6.10;;;3.47;;
65469;SDS011;52067;50.710;14.492;2024-03-25T00:10:45;4.15;;;2.80;;
65469;SDS011;52067;50.710;14.492;2024-03-25T00:13:10;3.92;;;2.90;;
65469;SDS011;52067;50.710;14.492;2024-03-25T00:15:36;4.93;;;3.13;;
65469;SDS011;52067;50.710;14.492;2024-03-25T00:18:03;5.70;;;3.00;;
65469;SDS011;52067;50.710;14.492;2024-03-25T00:20:29;3.83;;;2.72;;
65469;SDS011;52067;50.710;14.492;2024-03-25T00:22:54;6.60;;;2.95;;
65469;SDS011;52067;50.710;14.492;2024-03-25T00:25:19;4.47;;;2.65;;
65469;SDS011;52067;50.710;14.492;2024-03-25T00:27:45;5.63;;;2.63;;
65469;SDS011;52067;50.710;14.492;2024-03-25T00:30:11;2.92;;;1.83;;
65469;SDS011;52067;50.710;14.492;2024-03-25T00:32:37;3.53;;;2.60;;
65469;SDS011;52067;50.710;14.492;2024-03-25T00:35:02;4.15;;;2.60;;
65469;SDS011;52067;50.710;14.492;2024-03-25T00:37:28;3.63;;;2.50;;
65469;SDS011;52067;50.710;14.492;2024-03-25T00:39:53;4.28;;;3.03;;
65469;SDS011;52067;50.710;14.492;2024-03-25T00:42:19;4.35;;;3.30;;
65469;SDS011;52067;50.710;14.492;2024-03-25T00:44:44;4.47;;;3.05;;
65469;SDS011;52067;50.710;14.492;2024-03-25T00:47:10;4.00;;;2.60;;
65469;SDS011;52067;50.710;14.492;2024-03-25T00:49:35;12.95;;;6.20;;
65469;SDS011;52067;50.710;14.492;2024-03-25T00:52:01;4.85;;;2.75;;
65469;SDS011;52067;50.710;14.492;2024-03-25T00:54:27;5.00;;;2.63;;
65469;SDS011;52067;50.710;14.492;2024-03-25T00:56:52;5.63;;;2.78;;
65469;SDS011;52067;50.710;14.492;2024-03-25T00:59:18;4.82;;;3.35;;
65469;SDS011;52067;50.710;14.492;2024-03-25T01:01:44;4.65;;;2.83;;
65469;SDS011;52067;50.710;14.492;2024-03-25T01:04:09;6.50;;;3.90;;
65469;SDS011;52067;50.710;14.492;2024-03-25T01:06:35;3.92;;;2.70;;
65469;SDS011;52067;50.710;14.492;2024-03-25T01:09:00;3.10;;;2.30;;
65469;SDS011;52067;50.710;14.492;2024-03-25T01:11:26;3.42;;;2.30;;
65469;SDS011;52067;50.710;14.492;2024-03-25T01:13:51;4.07;;;2.60;;
65469;SDS011;52067;50.710;14.492;2024-03-25T01:16:17;4.05;;;2.58;;
65469;SDS011;52067;50.710;14.492;2024-03-25T01:18:42;3.60;;;2.35;;
65469;SDS011;52067;50.710;14.492;2024-03-25T01:21:08;4.32;;;2.30;;
65469;SDS011;52067;50.710;14.492;2024-03-25T01:23:33;3.85;;;2.50;;
65469;SDS011;52067;50.710;14.492;2024-03-25T01:25:59;4.32;;;2.22;;
65469;SDS011;52067;50.710;14.492;2024-03-25T01:28:25;3.13;;;2.20;;
65469;SDS011;52067;50.710;14.492;2024-03-25T01:30:51;3.85;;;2.15;;
65469;SDS011;52067;50.710;14.492;2024-03-25T01:33:16;4.70;;;2.40;;
65469;SDS011;52067;50.710;14.492;2024-03-25T01:35:41;4.40;;;1.92;;
65469;SDS011;52067;50.710;14.492;2024-03-25T01:38:07;2.90;;;2.15;;
65469;SDS011;52067;50.710;14.492;2024-03-25T01:40:33;2.95;;;1.92;;
65469;SDS011;52067;50.710;14.492;2024-03-25T01:43:02;3.45;;;2.30;;
65469;SDS011;52067;50.710;14.492;2024-03-25T01:45:32;4.07;;;2.10;;
65469;SDS011;52067;50.710;14.492;2024-03-25T01:48:03;5.45;;;2.28;;
65469;SDS011;52067;50.710;14.492;2024-03-25T01:50:31;3.63;;;1.88;;
65469;SDS011;52067;50.710;14.492;2024-03-25T01:53:00;2.38;;;1.60;;
65469;SDS011;52067;50.710;14.492;2024-03-25T01:55:27;4.00;;;1.67;;
65469;SDS011;52067;50.710;14.492;2024-03-25T01:57:54;2.15;;;1.58;;
65469;SDS011;52067;50.710;14.492;2024-03-25T02:00:20;2.45;;;1.50;;
65469;SDS011;52067;50.710;14.492;2024-03-25T02:02:47;2.95;;;1.73;;
65469;SDS011;52067;50.710;14.492;2024-03-25T02:05:14;3.00;;;1.77;;
65469;SDS011;52067;50.710;14.492;2024-03-25T02:07:40;3.78;;;1.88;;
65469;SDS011;52067;50.710;14.492;2024-03-25T02:10:07;1.92;;;1.48;;
65469;SDS011;52067;50.710;14.492;2024-03-25T02:12:38;2.08;;;1.45;;
65469;SDS011;52067;50.710;14.492;2024-03-25T02:15:05;2.17;;;1.33;;
65469;SDS011;52067;50.710;14.492;2024-03-25T02:17:31;3.03;;;1.60;;
65469;SDS011;52067;50.710;14.492;2024-03-25T02:19:56;1.90;;;1.50;;
65469;SDS011;52067;50.710;14.492;2024-03-25T02:22:22;1.67;;;1.23;;
65469;SDS011;52067;50.710;14.492;2024-03-25T02:24:48;1.90;;;1.40;;
65469;SDS011;52067;50.710;14.492;2024-03-25T02:27:16;4.03;;;1.60;;
65469;SDS011;52067;50.710;14.492;2024-03-25T02:29:42;1.90;;;1.13;;
65469;SDS011;52067;50.710;14.492;2024-03-25T02:32:07;1.85;;;1.30;;
65469;SDS011;52067;50.710;14.492;2024-03-25T02:34:39;3.80;;;1.50;;
65469;SDS011;52067;50.710;14.492;2024-03-25T02:37:12;2.40;;;1.38;;
65469;SDS011;52067;50.710;14.492;2024-03-25T02:39:38;1.80;;;1.50;;
65469;SDS011;52067;50.710;14.492;2024-03-25T02:42:04;2.17;;;1.30;;
65469;SDS011;52067;50.710;14.492;2024-03-25T02:44:30;2.00;;;1.30;;
65469;SDS011;52067;50.710;14.492;2024-03-25T02:46:56;1.88;;;1.20;;
65469;SDS011;52067;50.710;14.492;2024-03-25T02:49:23;2.10;;;1.30;;
65469;SDS011;52067;50.710;14.492;2024-03-25T02:51:48;2.65;;;1.30;;
65469;SDS011;52067;50.710;14.492;2024-03-25T02:54:14;2.63;;;1.30;;
65469;SDS011;52067;50.710;14.492;2024-03-25T02:56:40;1.42;;;1.30;;
65469;SDS011;52067;50.710;14.492;2024-03-25T02:59:06;2.28;;;1.40;;
65469;SDS011;52067;50.710;14.492;2024-03-25T03:01:31;1.80;;;1.40;;
65469;SDS011;52067;50.710;14.492;2024-03-25T03:03:57;2.80;;;1.20;;
65469;SDS011;52067;50.710;14.492;2024-03-25T03:06:22;1.70;;;1.40;;
65469;SDS011;52067;50.710;14.492;2024-03-25T03:08:48;4.53;;;1.30;;
65469;SDS011;52067;50.710;14.492;2024-03-25T03:11:13;1.73;;;1.27;;
65469;SDS011;52067;50.710;14.492;2024-03-25T03:13:38;2.97;;;1.58;;
65469;SDS011;52067;50.710;14.492;2024-03-25T03:16:04;1.42;;;1.10;;
65469;SDS011;52067;50.710;14.492;2024-03-25T03:18:30;2.25;;;1.20;;
65469;SDS011;52067;50.710;14.492;2024-03-25T03:20:55;1.27;;;1.05;;
65469;SDS011;52067;50.710;14.492;2024-03-25T03:23:21;1.98;;;1.40;;
65469;SDS011;52067;50.710;14.492;2024-03-25T03:25:47;1.70;;;1.35;;
65469;SDS011;52067;50.710;14.492;2024-03-25T03:28:13;1.50;;;1.30;;
65469;SDS011;52067;50.710;14.492;2024-03-25T03:30:40;2.38;;;1.40;;
65469;SDS011;52067;50.710;14.492;2024-03-25T03:33:05;1.98;;;1.40;;
65469;SDS011;52067;50.710;14.492;2024-03-25T03:35:32;2.67;;;1.73;;
65469;SDS011;52067;50.710;14.492;2024-03-25T03:37:58;2.05;;;1.40;;
65469;SDS011;52067;50.710;14.492;2024-03-25T03:40:23;2.00;;;1.30;;
65469;SDS011;52067;50.710;14.492;2024-03-25T03:42:49;2.78;;;1.25;;
65469;SDS011;52067;50.710;14.492;2024-03-25T03:45:14;1.70;;;1.20;;
65469;SDS011;52067;50.710;14.492;2024-03-25T03:47:39;1.48;;;1.25;;
65469;SDS011;52067;50.710;14.492;2024-03-25T03:50:06;1.70;;;1.30;;
65469;SDS011;52067;50.710;14.492;2024-03-25T03:52:32;2.10;;;1.50;;
65469;SDS011;52067;50.710;14.492;2024-03-25T03:54:58;2.47;;;1.50;;
65469;SDS011;52067;50.710;14.492;2024-03-25T03:57:23;1.30;;;1.20;;
65469;SDS011;52067;50.710;14.492;2024-03-25T03:59:50;2.13;;;1.30;;
65469;SDS011;52067;50.710;14.492;2024-03-25T04:02:16;2.03;;;1.50;;
65469;SDS011;52067;50.710;14.492;2024-03-25T04:04:41;1.92;;;1.10;;
65469;SDS011;52067;50.710;14.492;2024-03-25T04:07:07;1.38;;;1.00;;
65469;SDS011;52067;50.710;14.492;2024-03-25T04:09:32;4.03;;;1.77;;
65469;SDS011;52067;50.710;14.492;2024-03-25T04:11:58;2.15;;;1.30;;
65469;SDS011;52067;50.710;14.492;2024-03-25T04:14:23;1.55;;;1.30;;
65469;SDS011;52067;50.710;14.492;2024-03-25T04:16:48;1.88;;;1.25;;
65469;SDS011;52067;50.710;14.492;2024-03-25T04:19:16;2.85;;;1.27;;
65469;SDS011;52067;50.710;14.492;2024-03-25T04:21:41;1.30;;;1.10;;
65469;SDS011;52067;50.710;14.492;2024-03-25T04:24:07;1.92;;;1.40;;
65469;SDS011;52067;50.710;14.492;2024-03-25T04:26:33;2.90;;;1.30;;
65469;SDS011;52067;50.710;14.492;2024-03-25T04:28:59;2.35;;;1.52;;
65469;SDS011;52067;50.710;14.492;2024-03-25T04:31:24;2.30;;;1.40;;
65469;SDS011;52067;50.710;14.492;2024-03-25T04:33:50;3.00;;;1.60;;
65469;SDS011;52067;50.710;14.492;2024-03-25T04:36:15;2.55;;;1.50;;
65469;SDS011;52067;50.710;14.492;2024-03-25T04:38:41;3.08;;;1.60;;
65469;SDS011;52067;50.710;14.492;2024-03-25T04:41:06;1.77;;;1.35;;
65469;SDS011;52067;50.710;14.492;2024-03-25T04:43:31;1.88;;;1.20;;
65469;SDS011;52067;50.710;14.492;2024-03-25T04:46:00;2.95;;;1.60;;
65469;SDS011;52067;50.710;14.492;2024-03-25T04:48:25;3.65;;;1.70;;
65469;SDS011;52067;50.710;14.492;2024-03-25T04:50:51;1.20;;;0.90;;
65469;SDS011;52067;50.710;14.492;2024-03-25T04:53:16;1.80;;;1.17;;
65469;SDS011;52067;50.710;14.492;2024-03-25T04:55:42;1.70;;;1.30;;
65469;SDS011;52067;50.710;14.492;2024-03-25T04:58:07;3.97;;;1.75;;
65469;SDS011;52067;50.710;14.492;2024-03-25T05:00:32;1.40;;;1.10;;
65469;SDS011;52067;50.710;14.492;2024-03-25T05:02:58;3.80;;;1.17;;
65469;SDS011;52067;50.710;14.492;2024-03-25T05:05:23;1.73;;;1.20;;
65469;SDS011;52067;50.710;14.492;2024-03-25T05:07:49;1.75;;;1.42;;
65469;SDS011;52067;50.710;14.492;2024-03-25T05:10:14;1.98;;;1.52;;
65469;SDS011;52067;50.710;14.492;2024-03-25T05:12:40;4.10;;;1.88;;
65469;SDS011;52067;50.710;14.492;2024-03-25T05:15:05;2.97;;;1.90;;
65469;SDS011;52067;50.710;14.492;2024-03-25T05:17:31;3.83;;;1.70;;
65469;SDS011;52067;50.710;14.492;2024-03-25T05:19:56;2.83;;;1.80;;
65469;SDS011;52067;50.710;14.492;2024-03-25T05:22:21;2.08;;;1.52;;
65469;SDS011;52067;50.710;14.492;2024-03-25T05:24:47;1.98;;;1.50;;
65469;SDS011;52067;50.710;14.492;2024-03-25T05:27:12;2.80;;;1.70;;
65469;SDS011;52067;50.710;14.492;2024-03-25T05:29:38;2.42;;;1.60;;
65469;SDS011;52067;50.710;14.492;2024-03-25T05:32:03;3.00;;;2.00;;
65469;SDS011;52067;50.710;14.492;2024-03-25T05:34:29;4.75;;;1.92;;
65469;SDS011;52067;50.710;14.492;2024-03-25T05:36:55;2.28;;;1.70;;
65469;SDS011;52067;50.710;14.492;2024-03-25T05:39:20;2.25;;;1.70;;
65469;SDS011;52067;50.710;14.492;2024-03-25T05:41:46;3.05;;;1.33;;
65469;SDS011;52067;50.710;14.492;2024-03-25T05:44:12;3.05;;;1.80;;
65469;SDS011;52067;50.710;14.492;2024-03-25T05:46:38;5.95;;;2.00;;
65469;SDS011;52067;50.710;14.492;2024-03-25T05:49:04;2.13;;;1.15;;
65469;SDS011;52067;50.710;14.492;2024-03-25T05:51:30;1.55;;;1.30;;
65469;SDS011;52067;50.710;14.492;2024-03-25T05:53:56;2.53;;;1.48;;
65469;SDS011;52067;50.710;14.492;2024-03-25T05:56:21;2.08;;;1.38;;
65469;SDS011;52067;50.710;14.492;2024-03-25T05:58:47;4.13;;;1.90;;
65469;SDS011;52067;50.710;14.492;2024-03-25T06:01:12;5.40;;;1.70;;
65469;SDS011;52067;50.710;14.492;2024-03-25T06:03:38;3.42;;;1.80;;
65469;SDS011;52067;50.710;14.492;2024-03-25T06:06:04;4.70;;;2.08;;
65469;SDS011;52067;50.710;14.492;2024-03-25T06:08:29;6.47;;;2.00;;
65469;SDS011;52067;50.710;14.492;2024-03-25T06:10:59;3.45;;;2.05;;
65469;SDS011;52067;50.710;14.492;2024-03-25T06:13:25;2.35;;;1.80;;
65469;SDS011;52067;50.710;14.492;2024-03-25T06:15:51;1.88;;;1.40;;
65469;SDS011;52067;50.710;14.492;2024-03-25T06:18:16;1.88;;;1.50;;
65469;SDS011;52067;50.710;14.492;2024-03-25T06:20:42;4.43;;;2.00;;
65469;SDS011;52067;50.710;14.492;2024-03-25T06:23:07;3.08;;;2.20;;
65469;SDS011;52067;50.710;14.492;2024-03-25T06:25:32;3.60;;;1.92;;
65469;SDS011;52067;50.710;14.492;2024-03-25T06:27:58;3.55;;;2.35;;
65469;SDS011;52067;50.710;14.492;2024-03-25T06:30:24;3.75;;;2.08;;
65469;SDS011;52067;50.710;14.492;2024-03-25T06:33:08;3.88;;;2.03;;
65469;SDS011;52067;50.710;14.492;2024-03-25T06:35:51;5.50;;;2.72;;
65469;SDS011;52067;50.710;14.492;2024-03-25T06:38:17;6.40;;;2.75;;
65469;SDS011;52067;50.710;14.492;2024-03-25T06:40:42;4.10;;;2.78;;
65469;SDS011;52067;50.710;14.492;2024-03-25T06:43:10;4.68;;;2.72;;
65469;SDS011;52067;50.710;14.492;2024-03-25T06:45:35;5.35;;;3.00;;
65469;SDS011;52067;50.710;14.492;2024-03-25T06:48:00;4.50;;;2.72;;
65469;SDS011;52067;50.710;14.492;2024-03-25T06:50:26;7.00;;;3.88;;
65469;SDS011;52067;50.710;14.492;2024-03-25T06:52:51;7.35;;;3.53;;
65469;SDS011;52067;50.710;14.492;2024-03-25T06:55:16;4.05;;;2.20;;
65469;SDS011;52067;50.710;14.492;2024-03-25T06:57:43;2.47;;;1.80;;
65469;SDS011;52067;50.710;14.492;2024-03-25T07:00:09;3.80;;;2.03;;
65469;SDS011;52067;50.710;14.492;2024-03-25T07:02:38;2.75;;;1.67;;
65469;SDS011;52067;50.710;14.492;2024-03-25T07:05:04;2.28;;;1.38;;
65469;SDS011;52067;50.710;14.492;2024-03-25T07:07:29;3.50;;;1.42;;
65469;SDS011;52067;50.710;14.492;2024-03-25T07:09:55;3.47;;;1.60;;
65469;SDS011;52067;50.710;14.492;2024-03-25T07:12:20;3.15;;;1.80;;
65469;SDS011;52067;50.710;14.492;2024-03-25T07:14:45;2.50;;;1.63;;
65469;SDS011;52067;50.710;14.492;2024-03-25T07:17:11;2.15;;;1.48;;
65469;SDS011;52067;50.710;14.492;2024-03-25T07:19:36;5.22;;;1.83;;
65469;SDS011;52067;50.710;14.492;2024-03-25T07:22:01;2.95;;;2.00;;
65469;SDS011;52067;50.710;14.492;2024-03-25T07:24:27;3.25;;;2.10;;
65469;SDS011;52067;50.710;14.492;2024-03-25T07:26:53;4.32;;;1.80;;
65469;SDS011;52067;50.710;14.492;2024-03-25T07:29:18;2.80;;;1.70;;
65469;SDS011;52067;50.710;14.492;2024-03-25T07:31:44;6.78;;;3.00;;
65469;SDS011;52067;50.710;14.492;2024-03-25T07:34:09;2.50;;;1.67;;
65469;SDS011;52067;50.710;14.492;2024-03-25T07:36:36;3.85;;;2.10;;
65469;SDS011;52067;50.710;14.492;2024-03-25T07:39:02;8.35;;;4.47;;
65469;SDS011;52067;50.710;14.492;2024-03-25T07:41:28;5.43;;;2.38;;
65469;SDS011;52067;50.710;14.492;2024-03-25T07:43:53;9.88;;;4.82;;
65469;SDS011;52067;50.710;14.492;2024-03-25T07:46:19;6.03;;;3.17;;
65469;SDS011;52067;50.710;14.492;2024-03-25T07:48:44;5.78;;;2.83;;
65469;SDS011;52067;50.710;14.492;2024-03-25T07:51:10;4.32;;;2.60;;
65469;SDS011;52067;50.710;14.492;2024-03-25T07:53:35;4.80;;;2.65;;
65469;SDS011;52067;50.710;14.492;2024-03-25T07:56:01;5.05;;;2.42;;
65469;SDS011;52067;50.710;14.492;2024-03-25T07:58:26;5.38;;;2.25;;
65469;SDS011;52067;50.710;14.492;2024-03-25T08:00:51;7.93;;;3.28;;
65469;SDS011;52067;50.710;14.492;2024-03-25T08:03:17;4.05;;;2.30;;
65469;SDS011;52067;50.710;14.492;2024-03-25T08:05:42;4.40;;;2.80;;
65469;SDS011;52067;50.710;14.492;2024-03-25T08:08:07;7.15;;;2.53;;
65469;SDS011;52067;50.710;14.492;2024-03-25T08:10:33;8.63;;;4.90;;
65469;SDS011;52067;50.710;14.492;2024-03-25T08:12:59;3.08;;;2.28;;
65469;SDS011;52067;50.710;14.492;2024-03-25T08:15:24;3.75;;;2.30;;
65469;SDS011;52067;50.710;14.492;2024-03-25T08:17:50;3.20;;;2.05;;
65469;SDS011;52067;50.710;14.492;2024-03-25T08:20:15;3.97;;;2.58;;
65469;SDS011;52067;50.710;14.492;2024-03-25T08:22:40;6.30;;;3.38;;
65469;SDS011;52067;50.710;14.492;2024-03-25T08:25:06;3.10;;;2.17;;
65469;SDS011;52067;50.710;14.492;2024-03-25T08:27:31;6.45;;;2.60;;
65469;SDS011;52067;50.710;14.492;2024-03-25T08:29:57;2.05;;;1.40;;
65469;SDS011;52067;50.710;14.492;2024-03-25T08:32:22;3.10;;;2.00;;
65469;SDS011;52067;50.710;14.492;2024-03-25T08:34:48;4.60;;;2.33;;
65469;SDS011;52067;50.710;14.492;2024-03-25T08:37:13;5.13;;;2.47;;
65469;SDS011;52067;50.710;14.492;2024-03-25T08:39:39;10.02;;;5.28;;
65469;SDS011;52067;50.710;14.492;2024-03-25T08:42:04;4.20;;;2.67;;
65469;SDS011;52067;50.710;14.492;2024-03-25T08:44:30;3.17;;;2.22;;
65469;SDS011;52067;50.710;14.492;2024-03-25T08:46:55;3.42;;;1.80;;
65469;SDS011;52067;50.710;14.492;2024-03-25T08:49:21;3.15;;;1.75;;
65469;SDS011;52067;50.710;14.492;2024-03-25T08:51:46;4.40;;;2.60;;
65469;SDS011;52067;50.710;14.492;2024-03-25T08:54:12;4.57;;;2.53;;
65469;SDS011;52067;50.710;14.492;2024-03-25T08:56:37;6.47;;;3.70;;
65469;SDS011;52067;50.710;14.492;2024-03-25T08:59:03;3.53;;;1.45;;
65469;SDS011;52067;50.710;14.492;2024-03-25T09:01:28;4.72;;;2.53;;
65469;SDS011;52067;50.710;14.492;2024-03-25T09:03:55;4.00;;;2.33;;
65469;SDS011;52067;50.710;14.492;2024-03-25T09:06:21;4.28;;;2.33;;
65469;SDS011;52067;50.710;14.492;2024-03-25T09:08:46;4.25;;;2.17;;
65469;SDS011;52067;50.710;14.492;2024-03-25T09:11:30;4.45;;;3.05;;
65469;SDS011;52067;50.710;14.492;2024-03-25T09:13:55;6.60;;;2.42;;
65469;SDS011;52067;50.710;14.492;2024-03-25T09:16:21;2.35;;;1.58;;
65469;SDS011;52067;50.710;14.492;2024-03-25T09:18:46;3.45;;;1.95;;
65469;SDS011;52067;50.710;14.492;2024-03-25T09:21:11;3.22;;;2.17;;
65469;SDS011;52067;50.710;14.492;2024-03-25T09:23:37;6.05;;;3.38;;
65469;SDS011;52067;50.710;14.492;2024-03-25T09:26:03;3.55;;;2.30;;
65469;SDS011;52067;50.710;14.492;2024-03-25T09:28:28;3.78;;;2.30;;
65469;SDS011;52067;50.710;14.492;2024-03-25T09:30:54;5.78;;;2.75;;
65469;SDS011;52067;50.710;14.492;2024-03-25T09:33:19;7.32;;;2.50;;
65469;SDS011;52067;50.710;14.492;2024-03-25T09:35:45;4.10;;;2.53;;
65469;SDS011;52067;50.710;14.492;2024-03-25T09:38:10;3.45;;;2.03;;
65469;SDS011;52067;50.710;14.492;2024-03-25T09:40:36;2.95;;;2.05;;
65469;SDS011;52067;50.710;14.492;2024-03-25T09:43:05;2.80;;;1.80;;
65469;SDS011;52067;50.710;14.492;2024-03-25T09:45:35;3.92;;;2.50;;
65469;SDS011;52067;50.710;14.492;2024-03-25T09:48:01;2.72;;;2.03;;
65469;SDS011;52067;50.710;14.492;2024-03-25T09:50:29;3.53;;;2.40;;
65469;SDS011;52067;50.710;14.492;2024-03-25T09:52:55;4.05;;;2.30;;
65469;SDS011;52067;50.710;14.492;2024-03-25T09:55:20;2.72;;;2.03;;
65469;SDS011;52067;50.710;14.492;2024-03-25T09:57:46;3.78;;;2.00;;
65469;SDS011;52067;50.710;14.492;2024-03-25T10:00:12;3.85;;;2.17;;
65469;SDS011;52067;50.710;14.492;2024-03-25T10:02:40;5.13;;;2.42;;
65469;SDS011;52067;50.710;14.492;2024-03-25T10:05:06;2.45;;;1.90;;
65469;SDS011;52067;50.710;14.492;2024-03-25T10:07:32;4.50;;;2.40;;
65469;SDS011;52067;50.710;14.492;2024-03-25T10:09:57;3.00;;;2.00;;
65469;SDS011;52067;50.710;14.492;2024-03-25T10:12:23;3.80;;;2.20;;
65469;SDS011;52067;50.710;14.492;2024-03-25T10:14:49;3.95;;;2.45;;
65469;SDS011;52067;50.710;14.492;2024-03-25T10:17:15;5.68;;;2.58;;
65469;SDS011;52067;50.710;14.492;2024-03-25T10:19:40;3.95;;;2.33;;
65469;SDS011;52067;50.710;14.492;2024-03-25T10:22:06;2.70;;;1.77;;
65469;SDS011;52067;50.710;14.492;2024-03-25T10:24:44;6.85;;;2.53;;
65469;SDS011;52067;50.710;14.492;2024-03-25T10:27:20;5.18;;;2.40;;
65469;SDS011;52067;50.710;14.492;2024-03-25T10:29:54;4.30;;;2.30;;
65469;SDS011;52067;50.710;14.492;2024-03-25T10:32:22;2.70;;;2.15;;
65469;SDS011;52067;50.710;14.492;2024-03-25T10:34:53;4.85;;;2.30;;
65469;SDS011;52067;50.710;14.492;2024-03-25T10:37:20;3.45;;;2.10;;
65469;SDS011;52067;50.710;14.492;2024-03-25T10:39:50;3.00;;;2.10;;
65469;SDS011;52067;50.710;14.492;2024-03-25T10:42:20;3.50;;;2.40;;
65469;SDS011;52067;50.710;14.492;2024-03-25T10:44:49;3.53;;;2.22;;
65469;SDS011;52067;50.710;14.492;2024-03-25T10:47:19;3.53;;;2.00;;
65469;SDS011;52067;50.710;14.492;2024-03-25T10:49:51;6.38;;;2.42;;
65469;SDS011;52067;50.710;14.492;2024-03-25T10:52:23;3.60;;;2.20;;
65469;SDS011;52067;50.710;14.492;2024-03-25T10:54:50;3.03;;;1.90;;
65469;SDS011;52067;50.710;14.492;2024-03-25T10:57:16;3.47;;;2.08;;
65469;SDS011;52067;50.710;14.492;2024-03-25T10:59:42;3.33;;;2.13;;
65469;SDS011;52067;50.710;14.492;2024-03-25T11:02:09;3.80;;;1.70;;
65469;SDS011;52067;50.710;14.492;2024-03-25T11:04:36;2.80;;;1.92;;
65469;SDS011;52067;50.710;14.492;2024-03-25T11:07:09;4.80;;;1.85;;
65469;SDS011;52067;50.710;14.492;2024-03-25T11:09:35;4.10;;;2.35;;
65469;SDS011;52067;50.710;14.492;2024-03-25T11:12:01;2.85;;;1.90;;
65469;SDS011;52067;50.710;14.492;2024-03-25T11:14:28;2.63;;;1.63;;
65469;SDS011;52067;50.710;14.492;2024-03-25T11:16:53;2.38;;;1.80;;
65469;SDS011;52067;50.710;14.492;2024-03-25T11:19:25;2.55;;;1.80;;
65469;SDS011;52067;50.710;14.492;2024-03-25T11:21:51;2.88;;;1.70;;
65469;SDS011;52067;50.710;14.492;2024-03-25T11:24:26;2.00;;;1.30;;
65469;SDS011;52067;50.710;14.492;2024-03-25T11:26:55;2.17;;;1.40;;
65469;SDS011;52067;50.710;14.492;2024-03-25T11:29:21;1.33;;;1.17;;
65469;SDS011;52067;50.710;14.492;2024-03-25T11:31:47;2.28;;;1.63;;
65469;SDS011;52067;50.710;14.492;2024-03-25T11:34:15;2.17;;;1.63;;
65469;SDS011;52067;50.710;14.492;2024-03-25T11:36:40;1.98;;;1.50;;
65469;SDS011;52067;50.710;14.492;2024-03-25T11:39:06;2.28;;;1.33;;
65469;SDS011;52067;50.710;14.492;2024-03-25T11:41:35;3.22;;;1.70;;
65469;SDS011;52067;50.710;14.492;2024-03-25T11:44:04;3.83;;;1.50;;
65469;SDS011;52067;50.710;14.492;2024-03-25T11:46:30;1.15;;;1.05;;
65469;SDS011;52067;50.710;14.492;2024-03-25T11:48:56;1.67;;;1.25;;
65469;SDS011;52067;50.710;14.492;2024-03-25T11:51:21;2.10;;;1.40;;
65469;SDS011;52067;50.710;14.492;2024-03-25T11:53:47;2.72;;;1.38;;
65469;SDS011;52067;50.710;14.492;2024-03-25T11:56:12;2.35;;;1.67;;
65469;SDS011;52067;50.710;14.492;2024-03-25T11:58:39;1.85;;;1.30;;
65469;SDS011;52067;50.710;14.492;2024-03-25T12:01:04;3.65;;;1.50;;
65469;SDS011;52067;50.710;14.492;2024-03-25T12:03:30;1.75;;;1.38;;
65469;SDS011;52067;50.710;14.492;2024-03-25T12:05:58;2.55;;;1.38;;
65469;SDS011;52067;50.710;14.492;2024-03-25T12:08:23;2.72;;;1.50;;
65469;SDS011;52067;50.710;14.492;2024-03-25T12:10:53;3.28;;;1.70;;
65469;SDS011;52067;50.710;14.492;2024-03-25T12:13:40;2.28;;;1.63;;
65469;SDS011;52067;50.710;14.492;2024-03-25T12:16:06;3.17;;;1.60;;
65469;SDS011;52067;50.710;14.492;2024-03-25T12:18:35;2.70;;;1.90;;
65469;SDS011;52067;50.710;14.492;2024-03-25T12:21:01;2.67;;;1.67;;
65469;SDS011;52067;50.710;14.492;2024-03-25T12:23:32;4.13;;;1.70;;
65469;SDS011;52067;50.710;14.492;2024-03-25T12:26:01;2.38;;;1.70;;
65469;SDS011;52067;50.710;14.492;2024-03-25T12:28:28;2.58;;;1.58;;
65469;SDS011;52067;50.710;14.492;2024-03-25T12:30:56;2.50;;;1.70;;
65469;SDS011;52067;50.710;14.492;2024-03-25T12:33:22;2.60;;;1.60;;
65469;SDS011;52067;50.710;14.492;2024-03-25T12:35:48;2.22;;;1.63;;
65469;SDS011;52067;50.710;14.492;2024-03-25T12:38:30;2.92;;;1.70;;
65469;SDS011;52067;50.710;14.492;2024-03-25T12:41:06;2.58;;;1.60;;
65469;SDS011;52067;50.710;14.492;2024-03-25T12:43:34;3.97;;;2.25;;
65469;SDS011;52067;50.710;14.492;2024-03-25T12:46:00;5.40;;;2.67;;
65469;SDS011;52067;50.710;14.492;2024-03-25T12:48:26;4.50;;;2.67;;
65469;SDS011;52067;50.710;14.492;2024-03-25T12:50:51;2.40;;;1.60;;
65469;SDS011;52067;50.710;14.492;2024-03-25T12:53:18;3.33;;;2.00;;
65469;SDS011;52067;50.710;14.492;2024-03-25T12:55:45;3.88;;;1.50;;
65469;SDS011;52067;50.710;14.492;2024-03-25T12:58:11;3.50;;;1.90;;
65469;SDS011;52067;50.710;14.492;2024-03-25T13:00:36;1.83;;;1.55;;
65469;SDS011;52067;50.710;14.492;2024-03-25T13:03:03;2.70;;;1.80;;
65469;SDS011;52067;50.710;14.492;2024-03-25T13:05:30;3.72;;;1.80;;
65469;SDS011;52067;50.710;14.492;2024-03-25T13:07:55;3.70;;;2.00;;
65469;SDS011;52067;50.710;14.492;2024-03-25T13:10:21;3.15;;;1.70;;
65469;SDS011;52067;50.710;14.492;2024-03-25T13:12:46;4.53;;;1.83;;
65469;SDS011;52067;50.710;14.492;2024-03-25T13:15:12;3.95;;;1.80;;
65469;SDS011;52067;50.710;14.492;2024-03-25T13:17:37;2.30;;;1.60;;
65469;SDS011;52067;50.710;14.492;2024-03-25T13:20:03;3.72;;;1.85;;
65469;SDS011;52067;50.710;14.492;2024-03-25T13:22:29;2.40;;;1.70;;
65469;SDS011;52067;50.710;14.492;2024-03-25T13:24:56;5.38;;;1.88;;
65469;SDS011;52067;50.710;14.492;2024-03-25T13:27:22;3.97;;;1.85;;
65469;SDS011;52067;50.710;14.492;2024-03-25T13:29:47;2.28;;;1.63;;
65469;SDS011;52067;50.710;14.492;2024-03-25T13:32:12;2.40;;;1.73;;
65469;SDS011;52067;50.710;14.492;2024-03-25T13:34:38;2.88;;;1.90;;
65469;SDS011;52067;50.710;14.492;2024-03-25T13:37:03;3.70;;;2.22;;
65469;SDS011;52067;50.710;14.492;2024-03-25T13:39:29;2.83;;;1.88;;
65469;SDS011;52067;50.710;14.492;2024-03-25T13:41:54;4.20;;;2.28;;
65469;SDS011;52067;50.710;14.492;2024-03-25T13:44:19;2.83;;;1.80;;
65469;SDS011;52067;50.710;14.492;2024-03-25T13:46:45;3.90;;;2.00;;
65469;SDS011;52067;50.710;14.492;2024-03-25T13:49:10;2.95;;;1.70;;
65469;SDS011;52067;50.710;14.492;2024-03-25T13:51:36;3.80;;;2.10;;
65469;SDS011;52067;50.710;14.492;2024-03-25T13:54:01;3.00;;;1.90;;
65469;SDS011;52067;50.710;14.492;2024-03-25T13:56:27;5.03;;;1.98;;
65469;SDS011;52067;50.710;14.492;2024-03-25T13:58:53;3.88;;;2.00;;
65469;SDS011;52067;50.710;14.492;2024-03-25T14:01:18;4.05;;;2.15;;
65469;SDS011;52067;50.710;14.492;2024-03-25T14:03:44;4.38;;;1.77;;
65469;SDS011;52067;50.710;14.492;2024-03-25T14:06:11;2.90;;;1.70;;
65469;SDS011;52067;50.710;14.492;2024-03-25T14:08:36;2.38;;;1.40;;
65469;SDS011;52067;50.710;14.492;2024-03-25T14:11:02;3.38;;;1.80;;
65469;SDS011;52067;50.710;14.492;2024-03-25T14:13:28;2.22;;;1.70;;
65469;SDS011;52067;50.710;14.492;2024-03-25T14:15:54;2.50;;;1.80;;
65469;SDS011;52067;50.710;14.492;2024-03-25T14:18:19;2.03;;;1.50;;
65469;SDS011;52067;50.710;14.492;2024-03-25T14:20:44;3.22;;;1.88;;
65469;SDS011;52067;50.710;14.492;2024-03-25T14:23:11;2.90;;;2.03;;
65469;SDS011;52067;50.710;14.492;2024-03-25T14:25:37;2.83;;;2.03;;
65469;SDS011;52067;50.710;14.492;2024-03-25T14:28:03;4.68;;;2.40;;